sensor_id;sensor_type;location;lat;lon;timestamp;temperature;humidity
1766;DHT22;880;52.452;8.656;2023-07-20T00:02:04;17.10;99.90
1766;DHT22;880;52.452;8.656;2023-07-20T00:04:32;17.20;99.90
1766;DHT22;880;52.452;8.656;2023-07-20T00:06:59;17.20;99.90
1766;DHT22;880;52.452;8.656;2023-07-20T00:09:30;17.10;99.90
1766;DHT22;880;52.452;8.656;2023-07-20T00:11:57;17.00;99.90
1766;DHT22;880;52.452;8.656;2023-07-20T00:14:26;17.10;99.90
1766;DHT22;880;52.452;8.656;2023-07-20T00:16:55;17.10;99.90
1766;DHT22;880;52.452;8.656;2023-07-20T00:19:24;17.10;99.90
1766;DHT22;880;52.452;8.656;2023-07-20T00:21:54;17.10;99.90
1766;DHT22;880;52.452;8.656;2023-07-20T00:24:23;17.00;99.90
1766;DHT22;880;52.452;8.656;2023-07-20T00:26:50;16.80;99.90
1766;DHT22;880;52.452;8.656;2023-07-20T00:29:17;16.80;99.90
1766;DHT22;880;52.452;8.656;2023-07-20T00:31:46;16.80;99.90
1766;DHT22;880;52.452;8.656;2023-07-20T00:34:14;16.80;99.90
1766;DHT22;880;52.452;8.656;2023-07-20T00:36:41;16.70;99.90
1766;DHT22;880;52.452;8.656;2023-07-20T00:39:08;16.60;99.90
1766;DHT22;880;52.452;8.656;2023-07-20T00:41:35;16.60;99.90
1766;DHT22;880;52.452;8.656;2023-07-20T00:44:03;16.60;99.90
1766;DHT22;880;52.452;8.656;2023-07-20T00:46:30;16.60;99.90
1766;DHT22;880;52.452;8.656;2023-07-20T00:49:00;16.60;99.90
1766;DHT22;880;52.452;8.656;2023-07-20T00:51:27;16.60;99.90
1766;DHT22;880;52.452;8.656;2023-07-20T00:53:54;16.70;99.90
1766;DHT22;880;52.452;8.656;2023-07-20T00:56:22;16.60;99.90
1766;DHT22;880;52.452;8.656;2023-07-20T00:58:50;16.70;99.90
1766;DHT22;880;52.452;8.656;2023-07-20T01:01:17;16.80;99.90
1766;DHT22;880;52.452;8.656;2023-07-20T01:03:44;16.90;99.90
1766;DHT22;880;52.452;8.656;2023-07-20T01:12:07;16.60;99.90
1766;DHT22;880;52.452;8.656;2023-07-20T01:14:36;16.60;99.90
1766;DHT22;880;52.452;8.656;2023-07-20T01:17:04;16.80;99.90
1766;DHT22;880;52.452;8.656;2023-07-20T01:19:31;17.00;99.90
1766;DHT22;880;52.452;8.656;2023-07-20T01:24:56;17.20;99.90
1766;DHT22;880;52.452;8.656;2023-07-20T01:30:39;17.20;99.90
1766;DHT22;880;52.452;8.656;2023-07-20T01:33:32;17.10;99.90
1766;DHT22;880;52.452;8.656;2023-07-20T01:36:00;17.20;99.90
1766;DHT22;880;52.452;8.656;2023-07-20T01:38:28;17.20;99.90
1766;DHT22;880;52.452;8.656;2023-07-20T01:40:56;17.10;99.90
1766;DHT22;880;52.452;8.656;2023-07-20T01:43:23;17.20;99.90
1766;DHT22;880;52.452;8.656;2023-07-20T01:45:50;17.30;99.90
1766;DHT22;880;52.452;8.656;2023-07-20T01:48:17;17.30;99.90
1766;DHT22;880;52.452;8.656;2023-07-20T01:50:45;17.30;99.90
1766;DHT22;880;52.452;8.656;2023-07-20T01:53:12;17.20;99.90
1766;DHT22;880;52.452;8.656;2023-07-20T01:55:40;17.00;99.90
1766;DHT22;880;52.452;8.656;2023-07-20T01:58:07;16.80;99.90
1766;DHT22;880;52.452;8.656;2023-07-20T02:00:34;16.60;99.90
1766;DHT22;880;52.452;8.656;2023-07-20T02:03:03;16.50;99.90
1766;DHT22;880;52.452;8.656;2023-07-20T02:05:30;16.40;99.90
1766;DHT22;880;52.452;8.656;2023-07-20T02:07:57;16.40;99.90
1766;DHT22;880;52.452;8.656;2023-07-20T02:10:24;16.30;99.90
1766;DHT22;880;52.452;8.656;2023-07-20T02:12:52;16.30;99.90
1766;DHT22;880;52.452;8.656;2023-07-20T02:15:19;16.20;99.90
1766;DHT22;880;52.452;8.656;2023-07-20T02:17:46;16.10;99.90
1766;DHT22;880;52.452;8.656;2023-07-20T02:20:14;16.10;99.90
1766;DHT22;880;52.452;8.656;2023-07-20T02:22:40;16.10;99.90
1766;DHT22;880;52.452;8.656;2023-07-20T02:25:08;16.10;99.90
1766;DHT22;880;52.452;8.656;2023-07-20T02:27:35;16.10;99.90
1766;DHT22;880;52.452;8.656;2023-07-20T02:30:03;16.00;99.90
1766;DHT22;880;52.452;8.656;2023-07-20T02:32:31;16.00;99.90
1766;DHT22;880;52.452;8.656;2023-07-20T02:34:58;15.90;99.90
1766;DHT22;880;52.452;8.656;2023-07-20T02:37:25;15.90;99.90
1766;DHT22;880;52.452;8.656;2023-07-20T02:39:52;15.80;99.90
1766;DHT22;880;52.452;8.656;2023-07-20T02:42:19;15.70;99.90
1766;DHT22;880;52.452;8.656;2023-07-20T02:44:49;15.70;99.90
1766;DHT22;880;52.452;8.656;2023-07-20T02:47:16;15.70;99.90
1766;DHT22;880;52.452;8.656;2023-07-20T02:49:43;15.60;99.90
1766;DHT22;880;52.452;8.656;2023-07-20T02:52:10;15.60;99.90
1766;DHT22;880;52.452;8.656;2023-07-20T02:54:37;15.60;99.90
1766;DHT22;880;52.452;8.656;2023-07-20T02:57:04;15.60;99.90
1766;DHT22;880;52.452;8.656;2023-07-20T02:59:31;15.70;99.90
1766;DHT22;880;52.452;8.656;2023-07-20T03:01:58;15.80;99.90
1766;DHT22;880;52.452;8.656;2023-07-20T03:04:28;15.90;99.90
1766;DHT22;880;52.452;8.656;2023-07-20T03:06:55;15.80;99.90
1766;DHT22;880;52.452;8.656;2023-07-20T03:09:22;15.90;99.90
1766;DHT22;880;52.452;8.656;2023-07-20T03:11:50;16.00;99.90
1766;DHT22;880;52.452;8.656;2023-07-20T03:14:17;16.10;99.90
1766;DHT22;880;52.452;8.656;2023-07-20T03:16:44;16.10;99.90
1766;DHT22;880;52.452;8.656;2023-07-20T03:19:12;16.10;99.90
1766;DHT22;880;52.452;8.656;2023-07-20T03:21:40;16.10;99.90
1766;DHT22;880;52.452;8.656;2023-07-20T03:24:08;16.00;99.90
1766;DHT22;880;52.452;8.656;2023-07-20T03:26:36;15.90;99.90
1766;DHT22;880;52.452;8.656;2023-07-20T03:29:04;15.90;99.90
1766;DHT22;880;52.452;8.656;2023-07-20T03:31:32;16.10;99.90
1766;DHT22;880;52.452;8.656;2023-07-20T03:33:59;16.00;99.90
1766;DHT22;880;52.452;8.656;2023-07-20T03:36:26;15.90;99.90
1766;DHT22;880;52.452;8.656;2023-07-20T03:38:53;15.90;99.90
1766;DHT22;880;52.452;8.656;2023-07-20T03:41:20;15.80;99.90
1766;DHT22;880;52.452;8.656;2023-07-20T03:43:48;15.70;99.90
1766;DHT22;880;52.452;8.656;2023-07-20T03:46:15;15.70;99.90
1766;DHT22;880;52.452;8.656;2023-07-20T03:48:42;15.80;99.90
1766;DHT22;880;52.452;8.656;2023-07-20T03:51:09;15.80;99.90
1766;DHT22;880;52.452;8.656;2023-07-20T03:53:36;15.80;99.90
1766;DHT22;880;52.452;8.656;2023-07-20T03:56:04;15.80;99.90
1766;DHT22;880;52.452;8.656;2023-07-20T03:58:31;15.70;99.90
1766;DHT22;880;52.452;8.656;2023-07-20T04:00:58;15.70;99.90
1766;DHT22;880;52.452;8.656;2023-07-20T04:03:27;15.60;99.90
1766;DHT22;880;52.452;8.656;2023-07-20T04:05:54;15.50;99.90
1766;DHT22;880;52.452;8.656;2023-07-20T04:08:25;15.50;99.90
1766;DHT22;880;52.452;8.656;2023-07-20T04:10:52;15.50;99.90
1766;DHT22;880;52.452;8.656;2023-07-20T04:13:19;15.50;99.90
1766;DHT22;880;52.452;8.656;2023-07-20T04:15:46;15.60;99.90
1766;DHT22;880;52.452;8.656;2023-07-20T04:18:13;15.50;99.90
1766;DHT22;880;52.452;8.656;2023-07-20T04:20:40;15.50;99.90
1766;DHT22;880;52.452;8.656;2023-07-20T04:23:07;15.50;99.90
1766;DHT22;880;52.452;8.656;2023-07-20T04:25:34;15.50;99.90
1766;DHT22;880;52.452;8.656;2023-07-20T04:28:07;15.40;99.90
1766;DHT22;880;52.452;8.656;2023-07-20T04:30:40;15.40;99.90
1766;DHT22;880;52.452;8.656;2023-07-20T04:33:07;15.30;99.90
1766;DHT22;880;52.452;8.656;2023-07-20T04:35:51;15.30;99.90
1766;DHT22;880;52.452;8.656;2023-07-20T04:38:28;15.30;99.90
1766;DHT22;880;52.452;8.656;2023-07-20T04:41:03;15.30;99.90
1766;DHT22;880;52.452;8.656;2023-07-20T04:43:35;15.40;99.90
1766;DHT22;880;52.452;8.656;2023-07-20T04:46:02;15.50;99.90
1766;DHT22;880;52.452;8.656;2023-07-20T04:48:32;15.50;99.90
1766;DHT22;880;52.452;8.656;2023-07-20T04:50:59;15.40;99.90
1766;DHT22;880;52.452;8.656;2023-07-20T04:53:26;15.50;99.90
1766;DHT22;880;52.452;8.656;2023-07-20T04:55:53;15.40;99.90
1766;DHT22;880;52.452;8.656;2023-07-20T04:58:23;15.40;99.90
1766;DHT22;880;52.452;8.656;2023-07-20T05:00:52;15.30;99.90
1766;DHT22;880;52.452;8.656;2023-07-20T05:03:20;15.20;99.90
1766;DHT22;880;52.452;8.656;2023-07-20T05:05:48;15.20;99.90
1766;DHT22;880;52.452;8.656;2023-07-20T05:08:16;15.20;99.90
1766;DHT22;880;52.452;8.656;2023-07-20T05:10:43;15.20;99.90
1766;DHT22;880;52.452;8.656;2023-07-20T05:13:10;15.20;99.90
1766;DHT22;880;52.452;8.656;2023-07-20T05:15:37;15.30;99.90
1766;DHT22;880;52.452;8.656;2023-07-20T05:18:06;15.30;99.90
1766;DHT22;880;52.452;8.656;2023-07-20T05:20:35;15.30;99.90
1766;DHT22;880;52.452;8.656;2023-07-20T05:23:02;15.40;99.90
1766;DHT22;880;52.452;8.656;2023-07-20T05:25:29;15.30;99.90
1766;DHT22;880;52.452;8.656;2023-07-20T05:27:57;15.40;99.90
1766;DHT22;880;52.452;8.656;2023-07-20T05:30:24;15.40;99.90
1766;DHT22;880;52.452;8.656;2023-07-20T05:32:51;15.40;99.90
1766;DHT22;880;52.452;8.656;2023-07-20T05:35:19;15.50;99.90
1766;DHT22;880;52.452;8.656;2023-07-20T05:37:46;15.50;99.90
1766;DHT22;880;52.452;8.656;2023-07-20T05:40:14;15.50;99.90
1766;DHT22;880;52.452;8.656;2023-07-20T05:42:45;15.50;99.90
1766;DHT22;880;52.452;8.656;2023-07-20T05:45:13;15.50;99.90
1766;DHT22;880;52.452;8.656;2023-07-20T05:47:44;15.60;99.90
1766;DHT22;880;52.452;8.656;2023-07-20T05:50:11;15.70;99.90
1766;DHT22;880;52.452;8.656;2023-07-20T05:52:38;15.80;99.90
1766;DHT22;880;52.452;8.656;2023-07-20T05:55:06;15.90;99.90
1766;DHT22;880;52.452;8.656;2023-07-20T05:57:33;15.90;99.90
1766;DHT22;880;52.452;8.656;2023-07-20T06:00:02;16.10;99.90
1766;DHT22;880;52.452;8.656;2023-07-20T06:02:38;16.20;99.90
1766;DHT22;880;52.452;8.656;2023-07-20T06:05:08;16.40;99.90
1766;DHT22;880;52.452;8.656;2023-07-20T06:07:39;16.60;99.90
1766;DHT22;880;52.452;8.656;2023-07-20T06:10:06;16.60;99.90
1766;DHT22;880;52.452;8.656;2023-07-20T06:12:33;16.60;99.90
1766;DHT22;880;52.452;8.656;2023-07-20T06:15:02;16.70;99.90
1766;DHT22;880;52.452;8.656;2023-07-20T06:17:31;16.80;99.90
1766;DHT22;880;52.452;8.656;2023-07-20T06:19:58;16.90;99.90
1766;DHT22;880;52.452;8.656;2023-07-20T06:22:25;17.00;99.90
1766;DHT22;880;52.452;8.656;2023-07-20T06:24:52;17.00;99.90
1766;DHT22;880;52.452;8.656;2023-07-20T06:27:19;17.10;99.90
1766;DHT22;880;52.452;8.656;2023-07-20T06:29:46;17.40;99.90
1766;DHT22;880;52.452;8.656;2023-07-20T06:32:13;17.60;99.90
1766;DHT22;880;52.452;8.656;2023-07-20T06:34:40;17.60;99.90
1766;DHT22;880;52.452;8.656;2023-07-20T06:37:07;17.70;99.90
1766;DHT22;880;52.452;8.656;2023-07-20T06:39:34;17.80;99.90
1766;DHT22;880;52.452;8.656;2023-07-20T06:42:05;17.90;99.90
1766;DHT22;880;52.452;8.656;2023-07-20T06:44:32;17.90;99.90
1766;DHT22;880;52.452;8.656;2023-07-20T06:46:59;17.70;99.90
1766;DHT22;880;52.452;8.656;2023-07-20T06:49:27;17.60;99.90
1766;DHT22;880;52.452;8.656;2023-07-20T06:51:54;17.50;99.90
1766;DHT22;880;52.452;8.656;2023-07-20T06:54:22;17.30;99.90
1766;DHT22;880;52.452;8.656;2023-07-20T06:56:51;17.50;99.90
1766;DHT22;880;52.452;8.656;2023-07-20T06:59:21;17.70;99.90
1766;DHT22;880;52.452;8.656;2023-07-20T07:01:48;17.70;99.90
1766;DHT22;880;52.452;8.656;2023-07-20T07:04:15;17.60;99.90
1766;DHT22;880;52.452;8.656;2023-07-20T07:06:42;17.70;99.90
1766;DHT22;880;52.452;8.656;2023-07-20T07:09:09;17.60;99.90
1766;DHT22;880;52.452;8.656;2023-07-20T07:11:36;17.60;99.90
1766;DHT22;880;52.452;8.656;2023-07-20T07:14:03;17.80;99.90
1766;DHT22;880;52.452;8.656;2023-07-20T07:16:31;17.70;99.90
1766;DHT22;880;52.452;8.656;2023-07-20T07:18:58;17.70;99.90
1766;DHT22;880;52.452;8.656;2023-07-20T07:21:28;17.80;99.90
1766;DHT22;880;52.452;8.656;2023-07-20T07:23:55;18.30;99.90
1766;DHT22;880;52.452;8.656;2023-07-20T07:26:24;18.50;99.90
1766;DHT22;880;52.452;8.656;2023-07-20T07:28:51;18.70;99.90
1766;DHT22;880;52.452;8.656;2023-07-20T07:31:18;18.90;99.90
1766;DHT22;880;52.452;8.656;2023-07-20T07:33:45;18.90;99.90
1766;DHT22;880;52.452;8.656;2023-07-20T07:36:13;19.10;99.90
1766;DHT22;880;52.452;8.656;2023-07-20T07:38:40;19.10;99.90
1766;DHT22;880;52.452;8.656;2023-07-20T07:41:26;19.00;99.90
1766;DHT22;880;52.452;8.656;2023-07-20T07:43:54;19.10;99.90
1766;DHT22;880;52.452;8.656;2023-07-20T07:46:20;19.40;99.90
1766;DHT22;880;52.452;8.656;2023-07-20T07:48:48;19.60;99.90
1766;DHT22;880;52.452;8.656;2023-07-20T07:51:16;19.70;99.90
1766;DHT22;880;52.452;8.656;2023-07-20T07:53:42;19.70;99.90
1766;DHT22;880;52.452;8.656;2023-07-20T07:56:10;19.80;99.90
1766;DHT22;880;52.452;8.656;2023-07-20T07:58:38;19.50;99.90
1766;DHT22;880;52.452;8.656;2023-07-20T08:01:05;19.40;99.90
1766;DHT22;880;52.452;8.656;2023-07-20T08:03:32;19.60;99.90
1766;DHT22;880;52.452;8.656;2023-07-20T08:05:59;19.90;99.90
1766;DHT22;880;52.452;8.656;2023-07-20T08:08:26;20.10;99.90
1766;DHT22;880;52.452;8.656;2023-07-20T08:10:53;20.10;99.90
1766;DHT22;880;52.452;8.656;2023-07-20T08:13:21;20.00;99.90
1766;DHT22;880;52.452;8.656;2023-07-20T08:15:50;20.10;99.90
1766;DHT22;880;52.452;8.656;2023-07-20T08:18:20;20.30;99.90
1766;DHT22;880;52.452;8.656;2023-07-20T08:20:48;20.60;99.90
1766;DHT22;880;52.452;8.656;2023-07-20T08:23:15;20.80;99.90
1766;DHT22;880;52.452;8.656;2023-07-20T08:25:42;21.30;99.90
1766;DHT22;880;52.452;8.656;2023-07-20T08:28:14;21.30;99.90
1766;DHT22;880;52.452;8.656;2023-07-20T08:30:43;21.60;99.90
1766;DHT22;880;52.452;8.656;2023-07-20T08:33:13;21.50;99.90
1766;DHT22;880;52.452;8.656;2023-07-20T08:35:42;21.10;99.90
1766;DHT22;880;52.452;8.656;2023-07-20T08:38:09;21.00;99.90
1766;DHT22;880;52.452;8.656;2023-07-20T08:40:41;20.90;99.90
1766;DHT22;880;52.452;8.656;2023-07-20T08:43:10;20.80;99.90
1766;DHT22;880;52.452;8.656;2023-07-20T08:45:38;20.70;99.90
1766;DHT22;880;52.452;8.656;2023-07-20T08:48:07;20.80;99.90
1766;DHT22;880;52.452;8.656;2023-07-20T08:50:35;20.90;99.90
1766;DHT22;880;52.452;8.656;2023-07-20T08:53:02;21.10;99.90
1766;DHT22;880;52.452;8.656;2023-07-20T08:55:30;21.30;99.90
1766;DHT22;880;52.452;8.656;2023-07-20T08:57:59;21.80;99.90
1766;DHT22;880;52.452;8.656;2023-07-20T09:00:27;22.10;99.90
1766;DHT22;880;52.452;8.656;2023-07-20T09:02:56;22.30;99.90
1766;DHT22;880;52.452;8.656;2023-07-20T09:05:24;22.20;99.90
1766;DHT22;880;52.452;8.656;2023-07-20T09:07:53;22.00;99.90
1766;DHT22;880;52.452;8.656;2023-07-20T09:10:24;22.10;99.90
1766;DHT22;880;52.452;8.656;2023-07-20T09:12:51;22.30;99.90
1766;DHT22;880;52.452;8.656;2023-07-20T09:15:19;22.30;99.90
1766;DHT22;880;52.452;8.656;2023-07-20T09:17:47;22.20;99.90
1766;DHT22;880;52.452;8.656;2023-07-20T09:20:17;22.30;99.90
1766;DHT22;880;52.452;8.656;2023-07-20T09:22:50;22.70;99.90
1766;DHT22;880;52.452;8.656;2023-07-20T09:25:19;22.70;99.90
1766;DHT22;880;52.452;8.656;2023-07-20T09:27:53;22.30;99.90
1766;DHT22;880;52.452;8.656;2023-07-20T09:30:25;21.80;99.90
1766;DHT22;880;52.452;8.656;2023-07-20T09:32:58;21.30;99.90
1766;DHT22;880;52.452;8.656;2023-07-20T09:35:25;20.90;99.90
1766;DHT22;880;52.452;8.656;2023-07-20T09:38:07;20.70;99.90
1766;DHT22;880;52.452;8.656;2023-07-20T09:40:38;21.00;99.90
1766;DHT22;880;52.452;8.656;2023-07-20T09:43:09;21.10;99.90
1766;DHT22;880;52.452;8.656;2023-07-20T09:45:42;20.90;99.90
1766;DHT22;880;52.452;8.656;2023-07-20T09:48:12;20.90;99.90
1766;DHT22;880;52.452;8.656;2023-07-20T09:50:48;21.00;99.90
1766;DHT22;880;52.452;8.656;2023-07-20T09:53:18;21.30;99.90
1766;DHT22;880;52.452;8.656;2023-07-20T09:55:47;21.30;99.90
1766;DHT22;880;52.452;8.656;2023-07-20T09:58:15;21.20;99.90
1766;DHT22;880;52.452;8.656;2023-07-20T10:00:44;21.30;99.90
1766;DHT22;880;52.452;8.656;2023-07-20T10:03:19;21.40;99.90
1766;DHT22;880;52.452;8.656;2023-07-20T10:05:56;21.40;99.90
1766;DHT22;880;52.452;8.656;2023-07-20T10:08:26;21.30;99.90
1766;DHT22;880;52.452;8.656;2023-07-20T10:11:00;21.30;99.90
1766;DHT22;880;52.452;8.656;2023-07-20T10:13:29;21.30;99.90
1766;DHT22;880;52.452;8.656;2023-07-20T10:16:07;21.30;99.90
1766;DHT22;880;52.452;8.656;2023-07-20T10:19:27;21.30;99.90
1766;DHT22;880;52.452;8.656;2023-07-20T10:21:30;21.60;99.90
1766;DHT22;880;52.452;8.656;2023-07-20T10:24:02;21.70;99.90
1766;DHT22;880;52.452;8.656;2023-07-20T10:26:33;21.70;99.90
1766;DHT22;880;52.452;8.656;2023-07-20T10:29:04;21.70;99.90
1766;DHT22;880;52.452;8.656;2023-07-20T10:31:33;21.60;99.90
1766;DHT22;880;52.452;8.656;2023-07-20T10:34:02;21.80;99.90
1766;DHT22;880;52.452;8.656;2023-07-20T10:36:29;22.20;99.90
1766;DHT22;880;52.452;8.656;2023-07-20T10:38:58;22.60;99.90
1766;DHT22;880;52.452;8.656;2023-07-20T10:41:40;22.90;99.90
1766;DHT22;880;52.452;8.656;2023-07-20T10:44:08;22.70;99.90
1766;DHT22;880;52.452;8.656;2023-07-20T10:49:08;22.40;99.90
1766;DHT22;880;52.452;8.656;2023-07-20T10:51:40;22.30;99.90
1766;DHT22;880;52.452;8.656;2023-07-20T10:56:46;21.90;99.90
1766;DHT22;880;52.452;8.656;2023-07-20T10:59:37;21.80;99.90
1766;DHT22;880;52.452;8.656;2023-07-20T11:02:08;21.60;99.90
1766;DHT22;880;52.452;8.656;2023-07-20T11:04:40;21.80;99.90
1766;DHT22;880;52.452;8.656;2023-07-20T11:07:09;22.20;99.90
1766;DHT22;880;52.452;8.656;2023-07-20T11:09:38;22.50;99.90
1766;DHT22;880;52.452;8.656;2023-07-20T11:12:14;22.40;99.90
1766;DHT22;880;52.452;8.656;2023-07-20T11:15:03;22.60;99.90
1766;DHT22;880;52.452;8.656;2023-07-20T11:17:33;22.70;99.90
1766;DHT22;880;52.452;8.656;2023-07-20T11:20:02;22.80;99.90
1766;DHT22;880;52.452;8.656;2023-07-20T11:22:33;23.00;99.90
1766;DHT22;880;52.452;8.656;2023-07-20T11:25:01;23.10;99.90
1766;DHT22;880;52.452;8.656;2023-07-20T11:27:28;23.20;99.90
1766;DHT22;880;52.452;8.656;2023-07-20T11:29:56;23.40;99.90
1766;DHT22;880;52.452;8.656;2023-07-20T11:32:24;23.60;99.90
1766;DHT22;880;52.452;8.656;2023-07-20T11:34:51;23.60;99.90
1766;DHT22;880;52.452;8.656;2023-07-20T11:37:18;23.50;99.90
1766;DHT22;880;52.452;8.656;2023-07-20T11:39:46;23.40;99.90
1766;DHT22;880;52.452;8.656;2023-07-20T11:42:14;23.20;99.90
1766;DHT22;880;52.452;8.656;2023-07-20T11:45:05;23.00;99.90
1766;DHT22;880;52.452;8.656;2023-07-20T11:47:33;22.60;99.90
1766;DHT22;880;52.452;8.656;2023-07-20T11:50:04;22.30;99.90
1766;DHT22;880;52.452;8.656;2023-07-20T11:52:31;21.80;99.90
1766;DHT22;880;52.452;8.656;2023-07-20T11:54:58;21.50;99.90
1766;DHT22;880;52.452;8.656;2023-07-20T11:57:26;21.40;99.90
1766;DHT22;880;52.452;8.656;2023-07-20T12:02:28;21.50;99.90
1766;DHT22;880;52.452;8.656;2023-07-20T12:04:56;21.40;99.90
1766;DHT22;880;52.452;8.656;2023-07-20T12:07:27;21.30;99.90
1766;DHT22;880;52.452;8.656;2023-07-20T12:10:11;21.30;99.90
1766;DHT22;880;52.452;8.656;2023-07-20T12:12:43;21.60;99.90
1766;DHT22;880;52.452;8.656;2023-07-20T12:15:19;21.90;99.90
1766;DHT22;880;52.452;8.656;2023-07-20T12:17:52;22.20;99.90
1766;DHT22;880;52.452;8.656;2023-07-20T12:23:02;22.60;99.90
1766;DHT22;880;52.452;8.656;2023-07-20T12:25:42;23.00;99.90
1766;DHT22;880;52.452;8.656;2023-07-20T12:28:12;23.50;99.90
1766;DHT22;880;52.452;8.656;2023-07-20T12:30:42;23.70;99.90
1766;DHT22;880;52.452;8.656;2023-07-20T12:33:11;23.70;99.90
1766;DHT22;880;52.452;8.656;2023-07-20T12:35:41;23.80;99.90
1766;DHT22;880;52.452;8.656;2023-07-20T12:38:07;23.60;99.90
1766;DHT22;880;52.452;8.656;2023-07-20T12:40:35;23.60;99.90
1766;DHT22;880;52.452;8.656;2023-07-20T12:43:02;23.60;99.90
1766;DHT22;880;52.452;8.656;2023-07-20T12:45:31;23.60;99.90
1766;DHT22;880;52.452;8.656;2023-07-20T12:47:58;23.80;99.90
1766;DHT22;880;52.452;8.656;2023-07-20T12:50:26;24.00;99.90
1766;DHT22;880;52.452;8.656;2023-07-20T12:52:54;24.30;99.90
1766;DHT22;880;52.452;8.656;2023-07-20T12:55:21;24.40;99.90
1766;DHT22;880;52.452;8.656;2023-07-20T12:57:48;24.50;99.90
1766;DHT22;880;52.452;8.656;2023-07-20T13:00:15;24.50;99.90
1766;DHT22;880;52.452;8.656;2023-07-20T13:02:43;24.90;99.90
1766;DHT22;880;52.452;8.656;2023-07-20T13:05:10;25.10;99.90
1766;DHT22;880;52.452;8.656;2023-07-20T13:07:38;25.10;99.90
1766;DHT22;880;52.452;8.656;2023-07-20T13:10:11;25.20;99.90
1766;DHT22;880;52.452;8.656;2023-07-20T13:12:39;25.00;99.80
1766;DHT22;880;52.452;8.656;2023-07-20T13:15:07;24.60;99.80
1766;DHT22;880;52.452;8.656;2023-07-20T13:17:36;24.60;99.90
1766;DHT22;880;52.452;8.656;2023-07-20T13:20:07;24.80;99.90
1766;DHT22;880;52.452;8.656;2023-07-20T13:22:38;24.80;99.70
1766;DHT22;880;52.452;8.656;2023-07-20T13:25:06;24.50;99.90
1766;DHT22;880;52.452;8.656;2023-07-20T13:27:34;24.40;99.90
1766;DHT22;880;52.452;8.656;2023-07-20T13:30:01;24.10;99.50
1766;DHT22;880;52.452;8.656;2023-07-20T13:32:33;23.70;99.90
1766;DHT22;880;52.452;8.656;2023-07-20T13:35:01;23.50;99.90
1766;DHT22;880;52.452;8.656;2023-07-20T13:37:28;23.50;99.90
1766;DHT22;880;52.452;8.656;2023-07-20T13:39:55;23.30;99.90
1766;DHT22;880;52.452;8.656;2023-07-20T13:42:23;23.00;99.90
1766;DHT22;880;52.452;8.656;2023-07-20T13:44:53;22.70;99.90
1766;DHT22;880;52.452;8.656;2023-07-20T13:47:20;22.60;99.90
1766;DHT22;880;52.452;8.656;2023-07-20T13:49:48;22.50;99.90
1766;DHT22;880;52.452;8.656;2023-07-20T13:52:28;22.50;99.90
1766;DHT22;880;52.452;8.656;2023-07-20T13:54:58;22.40;99.90
1766;DHT22;880;52.452;8.656;2023-07-20T13:57:26;22.20;99.90
1766;DHT22;880;52.452;8.656;2023-07-20T13:59:53;22.00;99.90
1766;DHT22;880;52.452;8.656;2023-07-20T14:02:21;21.60;99.90
1766;DHT22;880;52.452;8.656;2023-07-20T14:04:51;21.30;99.90
1766;DHT22;880;52.452;8.656;2023-07-20T14:07:37;21.20;99.90
1766;DHT22;880;52.452;8.656;2023-07-20T14:10:06;21.10;99.90
1766;DHT22;880;52.452;8.656;2023-07-20T14:12:36;20.90;99.90
1766;DHT22;880;52.452;8.656;2023-07-20T14:15:04;20.80;99.90
1766;DHT22;880;52.452;8.656;2023-07-20T14:17:31;20.80;99.90
1766;DHT22;880;52.452;8.656;2023-07-20T14:19:58;20.60;99.90
1766;DHT22;880;52.452;8.656;2023-07-20T14:22:26;20.60;99.90
1766;DHT22;880;52.452;8.656;2023-07-20T14:24:53;20.70;99.90
1766;DHT22;880;52.452;8.656;2023-07-20T14:27:20;20.70;99.90
1766;DHT22;880;52.452;8.656;2023-07-20T14:29:47;20.80;99.90
1766;DHT22;880;52.452;8.656;2023-07-20T14:32:15;20.90;99.90
1766;DHT22;880;52.452;8.656;2023-07-20T14:34:41;20.90;99.90
1766;DHT22;880;52.452;8.656;2023-07-20T14:37:09;20.90;99.90
1766;DHT22;880;52.452;8.656;2023-07-20T14:39:36;21.10;99.90
1766;DHT22;880;52.452;8.656;2023-07-20T14:42:03;21.10;99.90
1766;DHT22;880;52.452;8.656;2023-07-20T14:44:33;21.10;99.90
1766;DHT22;880;52.452;8.656;2023-07-20T14:47:00;21.00;99.90
1766;DHT22;880;52.452;8.656;2023-07-20T14:49:40;21.00;99.90
1766;DHT22;880;52.452;8.656;2023-07-20T14:52:07;21.10;99.90
1766;DHT22;880;52.452;8.656;2023-07-20T14:54:37;21.10;99.90
1766;DHT22;880;52.452;8.656;2023-07-20T14:57:04;21.30;99.90
1766;DHT22;880;52.452;8.656;2023-07-20T14:59:31;21.30;99.90
1766;DHT22;880;52.452;8.656;2023-07-20T15:01:58;21.20;99.90
1766;DHT22;880;52.452;8.656;2023-07-20T15:04:25;21.10;99.90
1766;DHT22;880;52.452;8.656;2023-07-20T15:06:53;21.20;99.90
1766;DHT22;880;52.452;8.656;2023-07-20T15:09:21;21.20;99.90
1766;DHT22;880;52.452;8.656;2023-07-20T15:11:48;21.20;99.90
1766;DHT22;880;52.452;8.656;2023-07-20T15:14:15;21.30;99.90
1766;DHT22;880;52.452;8.656;2023-07-20T15:16:42;21.50;99.90
1766;DHT22;880;52.452;8.656;2023-07-20T15:19:12;21.50;99.90
1766;DHT22;880;52.452;8.656;2023-07-20T15:21:40;21.50;99.90
1766;DHT22;880;52.452;8.656;2023-07-20T15:24:07;21.60;99.90
1766;DHT22;880;52.452;8.656;2023-07-20T15:26:34;21.60;99.90
1766;DHT22;880;52.452;8.656;2023-07-20T15:29:01;21.40;99.90
1766;DHT22;880;52.452;8.656;2023-07-20T15:31:28;21.30;99.90
1766;DHT22;880;52.452;8.656;2023-07-20T15:33:58;21.20;99.90
1766;DHT22;880;52.452;8.656;2023-07-20T15:36:25;21.30;99.90
1766;DHT22;880;52.452;8.656;2023-07-20T15:38:52;21.50;99.90
1766;DHT22;880;52.452;8.656;2023-07-20T15:41:20;21.70;99.90
1766;DHT22;880;52.452;8.656;2023-07-20T15:43:48;22.10;99.90
1766;DHT22;880;52.452;8.656;2023-07-20T15:48:47;22.30;99.90
1766;DHT22;880;52.452;8.656;2023-07-20T15:51:14;22.40;99.90
1766;DHT22;880;52.452;8.656;2023-07-20T15:53:41;22.50;99.90
1766;DHT22;880;52.452;8.656;2023-07-20T15:56:08;22.70;99.90
1766;DHT22;880;52.452;8.656;2023-07-20T15:58:35;22.90;99.90
1766;DHT22;880;52.452;8.656;2023-07-20T16:01:02;22.90;99.90
1766;DHT22;880;52.452;8.656;2023-07-20T16:03:29;22.80;99.90
1766;DHT22;880;52.452;8.656;2023-07-20T16:05:59;22.80;99.90
1766;DHT22;880;52.452;8.656;2023-07-20T16:08:28;22.70;99.90
1766;DHT22;880;52.452;8.656;2023-07-20T16:10:55;22.70;99.90
1766;DHT22;880;52.452;8.656;2023-07-20T16:13:24;22.80;99.90
1766;DHT22;880;52.452;8.656;2023-07-20T16:15:51;22.80;99.90
1766;DHT22;880;52.452;8.656;2023-07-20T16:18:19;22.80;99.90
1766;DHT22;880;52.452;8.656;2023-07-20T16:20:47;22.80;99.90
1766;DHT22;880;52.452;8.656;2023-07-20T16:23:14;22.90;99.90
1766;DHT22;880;52.452;8.656;2023-07-20T16:25:45;22.80;99.90
1766;DHT22;880;52.452;8.656;2023-07-20T16:28:13;22.60;99.90
1766;DHT22;880;52.452;8.656;2023-07-20T16:30:41;22.70;99.90
1766;DHT22;880;52.452;8.656;2023-07-20T16:33:08;22.90;99.90
1766;DHT22;880;52.452;8.656;2023-07-20T16:35:39;22.80;99.90
1766;DHT22;880;52.452;8.656;2023-07-20T16:38:10;22.90;99.90
1766;DHT22;880;52.452;8.656;2023-07-20T16:40:39;23.10;99.90
1766;DHT22;880;52.452;8.656;2023-07-20T16:43:10;23.10;99.90
1766;DHT22;880;52.452;8.656;2023-07-20T16:45:37;23.10;99.90
1766;DHT22;880;52.452;8.656;2023-07-20T16:48:04;23.20;99.90
1766;DHT22;880;52.452;8.656;2023-07-20T16:50:32;23.10;99.90
1766;DHT22;880;52.452;8.656;2023-07-20T16:52:59;23.10;99.90